Time;durP1;ratioP1;P1;durP2;ratioP2;P2;SDS_P1;SDS_P2;PMS_P1;PMS_P2;Temp;Humidity;BMP_temperature;BMP_pressure;BME280_temperature;BME280_humidity;BME280_pressure;Samples;Min_cycle;Max_cycle;Signal;HPM_P1;HPM_P2
2022/07/17 00:01:34;;;;;;;1.60;0.95;;;;;;;18.29;55.13;101370.25;4889041;29;20028;-73
2022/07/17 00:04:00;;;;;;;0.77;0.70;;;;;;;18.25;55.19;101363.69;4901904;29;20043;-73
2022/07/17 00:06:25;;;;;;;1.40;0.85;;;;;;;18.20;55.29;101360.16;4899741;29;20025;-73
2022/07/17 00:08:51;;;;;;;1.30;1.10;;;;;;;18.16;55.19;101359.91;4869435;29;20032;-75
2022/07/17 00:11:16;;;;;;;1.13;1.00;;;;;;;18.16;55.69;101359.91;4884156;29;20044;-73
2022/07/17 00:13:42;;;;;;;1.50;1.05;;;;;;;18.14;55.38;101362.16;4885137;29;20029;-74
2022/07/17 00:16:07;;;;;;;1.05;0.90;;;;;;;18.12;55.66;101362.44;4884616;29;20455;-75
2022/07/17 00:18:33;;;;;;;0.90;0.80;;;;;;;18.12;55.33;101358.84;4857039;29;20119;-74
2022/07/17 00:20:58;;;;;;;0.85;0.57;;;;;;;18.08;55.77;101357.78;4900649;29;20111;-74
2022/07/17 00:23:24;;;;;;;0.95;0.85;;;;;;;18.03;55.77;101355.06;4884649;29;20044;-73
2022/07/17 00:25:49;;;;;;;0.73;0.70;;;;;;;18.04;55.74;101362.25;4857884;29;20487;-74
2022/07/17 00:28:15;;;;;;;0.90;0.70;;;;;;;18.03;55.55;101363.38;4895773;29;20119;-75
2022/07/17 00:30:40;;;;;;;1.17;0.55;;;;;;;18.04;55.71;101362.25;4871006;29;20037;-73
2022/07/17 00:33:08;;;;;;;0.43;0.43;;;;;;;18.01;55.71;101363.66;4872726;29;20040;-74
2022/07/17 00:35:34;;;;;;;0.88;0.60;;;;;;;17.99;56.33;101360.38;4903547;29;20035;-73
2022/07/17 00:37:59;;;;;;;0.75;0.65;;;;;;;17.94;56.47;101355.69;4903360;29;20391;-73
2022/07/17 00:40:25;;;;;;;1.50;0.77;;;;;;;17.89;56.08;101344.69;4876752;29;20033;-74
2022/07/17 00:42:51;;;;;;;0.80;0.80;;;;;;;17.87;56.53;101346.06;4903818;29;20475;-74
2022/07/17 00:45:17;;;;;;;0.68;0.68;;;;;;;17.85;56.37;101338.06;4886889;29;20047;-74
2022/07/17 00:48:00;;;;;;;1.38;0.80;;;;;;;17.78;56.56;101332.06;4879331;29;20028;-73
2022/07/17 00:50:36;;;;;;;0.63;0.60;;;;;;;17.78;57.04;101337.59;4877424;29;20114;-73
2022/07/17 00:53:03;;;;;;;0.57;0.57;;;;;;;17.76;56.74;101334.31;4880559;29;20099;-73
2022/07/17 00:55:29;;;;;;;0.90;0.75;;;;;;;17.73;56.67;101332.13;4886309;29;20032;-73
2022/07/17 00:57:56;;;;;;;0.50;0.50;;;;;;;17.71;57.07;101326.03;4903748;29;20118;-74
2022/07/17 01:00:22;;;;;;;0.60;0.60;;;;;;;17.67;57.16;101322.22;4860655;29;20041;-73
2022/07/17 01:02:50;;;;;;;0.60;0.60;;;;;;;17.66;56.89;101317.81;4895762;29;20028;-75
2022/07/17 01:05:17;;;;;;;0.60;0.60;;;;;;;17.64;57.07;101329.19;4902410;29;20468;-74
2022/07/17 01:07:42;;;;;;;0.50;0.50;;;;;;;17.62;57.49;101329.47;4898737;29;20029;-74
2022/07/17 01:10:10;;;;;;;0.60;0.60;;;;;;;17.60;57.15;101328.91;4883354;29;20471;-74
2022/07/17 01:12:35;;;;;;;0.63;0.50;;;;;;;17.58;57.45;101322.88;4886819;29;20353;-74
2022/07/17 01:15:02;;;;;;;0.55;0.50;;;;;;;17.56;57.30;101327.03;4884818;29;20023;-73
2022/07/17 01:17:27;;;;;;;1.38;0.70;;;;;;;17.55;57.65;101328.13;4905040;29;20081;-74
2022/07/17 01:19:53;;;;;;;0.70;0.50;;;;;;;17.52;57.91;101325.97;4903407;29;20037;-73
2022/07/17 01:22:19;;;;;;;0.70;0.60;;;;;;;17.39;57.52;101303.41;4871903;29;20081;-71
2022/07/17 01:24:45;;;;;;;0.95;0.70;;;;;;;17.45;58.00;101312.50;4883683;29;20088;-72
2022/07/17 01:27:11;;;;;;;0.80;0.80;;;;;;;17.38;57.79;101312.81;4869299;29;20045;-75
2022/07/17 01:29:38;;;;;;;0.60;0.60;;;;;;;17.36;58.32;101311.44;4883737;29;20032;-76
2022/07/17 01:32:03;;;;;;;1.08;0.77;;;;;;;17.29;58.24;101309.03;4874933;29;20024;-75
2022/07/17 01:34:29;;;;;;;0.70;0.70;;;;;;;17.24;58.53;101318.22;4903095;29;20392;-75
2022/07/17 01:36:54;;;;;;;1.20;0.70;;;;;;;17.21;58.41;101318.75;4885316;29;20024;-74
2022/07/17 01:39:52;;;;;;;1.00;0.90;;;;;;;17.19;58.62;101320.19;4886705;29;20037;-74
2022/07/17 01:42:05;;;;;;;0.90;0.57;;;;;;;17.17;58.77;101317.72;4889718;29;20121;-73
2022/07/17 01:44:30;;;;;;;0.68;0.63;;;;;;;17.14;58.65;101318.25;4903657;29;20077;-75
2022/07/17 01:46:56;;;;;;;0.77;0.70;;;;;;;17.13;58.69;101311.09;4896018;29;20056;-73
2022/07/17 01:49:21;;;;;;;0.63;0.60;;;;;;;17.11;58.92;101307.78;4902842;29;20471;-72
2022/07/17 01:51:48;;;;;;;1.27;0.90;;;;;;;17.10;58.66;101304.22;4902839;29;20017;-74
2022/07/17 01:54:13;;;;;;;0.82;0.80;;;;;;;17.06;58.80;101292.06;4902114;29;20032;-73
2022/07/17 01:56:39;;;;;;;0.95;0.85;;;;;;;17.02;59.34;101295.72;4879432;29;20064;-73
2022/07/17 01:59:04;;;;;;;1.25;0.70;;;;;;;17.00;59.29;101295.19;4863449;29;20032;-74
2022/07/17 02:01:29;;;;;;;0.77;0.60;;;;;;;17.00;59.14;101306.25;4884409;29;20068;-71
2022/07/17 02:03:55;;;;;;;0.60;0.60;;;;;;;16.98;59.29;101297.41;4886984;29;20107;-73
2022/07/17 02:06:20;;;;;;;1.30;0.70;;;;;;;16.93;59.59;101295.50;4877770;29;20444;-75
2022/07/17 02:08:48;;;;;;;0.90;0.50;;;;;;;16.97;59.68;101301.25;4885999;29;20044;-74
2022/07/17 02:11:14;;;;;;;0.73;0.50;;;;;;;16.93;59.72;101304.59;4904057;29;20040;-73
2022/07/17 02:13:39;;;;;;;0.75;0.57;;;;;;;16.91;59.75;101306.84;4873402;29;20044;-74
2022/07/17 02:16:05;;;;;;;0.63;0.55;;;;;;;16.92;59.64;101308.50;4895325;29;20037;-73
2022/07/17 02:18:30;;;;;;;0.60;0.50;;;;;;;16.92;59.53;101311.25;4867311;29;20059;-74
2022/07/17 02:20:56;;;;;;;0.57;0.52;;;;;;;16.92;59.59;101300.22;4882050;29;20036;-75
2022/07/17 02:23:21;;;;;;;0.77;0.60;;;;;;;16.91;60.01;101304.06;4877918;29;20044;-74
2022/07/17 02:25:47;;;;;;;1.02;0.55;;;;;;;16.90;59.80;101307.13;4874896;29;20103;-74
2022/07/17 02:28:12;;;;;;;0.77;0.65;;;;;;;16.86;60.26;101312.34;4899901;29;20040;-74
2022/07/17 02:30:37;;;;;;;0.82;0.57;;;;;;;16.82;60.32;101314.06;4882327;29;20468;-73
2022/07/17 02:33:03;;;;;;;0.80;0.80;;;;;;;16.73;60.21;101301.97;4898729;29;20044;-73
2022/07/17 02:35:28;;;;;;;3.65;0.60;;;;;;;16.74;60.57;101315.47;4872169;29;20063;-74
2022/07/17 02:37:54;;;;;;;1.05;0.70;;;;;;;16.72;60.57;101311.38;4893855;29;20032;-75
2022/07/17 02:40:19;;;;;;;0.95;0.75;;;;;;;16.69;60.61;101301.72;4871426;29;20444;-74
2022/07/17 02:42:44;;;;;;;0.70;0.68;;;;;;;16.69;60.69;101309.16;4884385;29;20032;-75
2022/07/17 02:45:10;;;;;;;0.55;0.55;;;;;;;16.63;60.63;101307.53;4887443;29;20491;-73
2022/07/17 02:47:36;;;;;;;0.98;0.68;;;;;;;16.63;60.78;101308.38;4884674;29;20467;-72
2022/07/17 02:50:04;;;;;;;0.68;0.60;;;;;;;16.60;60.82;101305.34;4892922;29;20056;-74
2022/07/17 02:52:30;;;;;;;0.60;0.60;;;;;;;16.56;60.93;101302.34;4894908;29;20029;-74
2022/07/17 02:54:55;;;;;;;0.82;0.63;;;;;;;16.53;61.46;101306.50;4892377;29;20040;-73
2022/07/17 02:57:21;;;;;;;0.80;0.80;;;;;;;16.53;61.20;101303.75;4860843;29;20037;-73
2022/07/17 02:59:47;;;;;;;0.65;0.65;;;;;;;16.53;61.35;101309.28;4853434;29;20043;-75
2022/07/17 03:02:13;;;;;;;0.93;0.57;;;;;;;16.53;61.45;101300.97;4901257;29;20989;-74
2022/07/17 03:04:38;;;;;;;1.08;0.70;;;;;;;16.50;61.12;101298.78;4857016;29;20033;-74
2022/07/17 03:07:04;;;;;;;0.65;0.65;;;;;;;16.51;61.29;101299.59;4889591;29;20401;-73
2022/07/17 03:09:29;;;;;;;1.10;0.70;;;;;;;16.48;61.53;101305.69;4872007;29;20173;-73
2022/07/17 03:11:54;;;;;;;1.15;0.68;;;;;;;16.45;61.50;101301.56;4881326;29;20028;-74
2022/07/17 03:14:20;;;;;;;0.75;0.75;;;;;;;16.42;61.62;101307.66;4884929;29;20040;-73
2022/07/17 03:16:45;;;;;;;0.98;0.73;;;;;;;16.39;61.59;101309.06;4886106;29;20067;-75
2022/07/17 03:19:11;;;;;;;0.70;0.70;;;;;;;16.38;62.13;101310.19;4900773;29;20032;-74
2022/07/17 03:21:36;;;;;;;0.70;0.70;;;;;;;16.33;61.94;101303.84;4887363;29;20104;-74
2022/07/17 03:24:02;;;;;;;0.68;0.65;;;;;;;16.28;62.13;101299.19;4893465;29;20121;-74
2022/07/17 03:26:27;;;;;;;0.60;0.60;;;;;;;16.23;61.92;101308.28;4878409;29;20060;-75
2022/07/17 03:28:52;;;;;;;0.57;0.57;;;;;;;16.22;62.44;101298.38;4877464;29;20419;-74
2022/07/17 03:31:18;;;;;;;0.50;0.50;;;;;;;16.27;62.40;101299.47;4883388;29;20129;-75
2022/07/17 03:33:43;;;;;;;0.47;0.40;;;;;;;16.24;62.28;101300.84;4859692;29;20033;-74
2022/07/17 03:36:09;;;;;;;1.48;0.60;;;;;;;16.27;62.30;101305.00;4882564;29;20476;-76
2022/07/17 03:38:34;;;;;;;0.60;0.60;;;;;;;16.24;62.22;101306.38;4904433;29;20088;-74
2022/07/17 03:41:00;;;;;;;0.30;0.30;;;;;;;16.21;62.49;101305.00;4883931;29;20032;-77
2022/07/17 03:43:25;;;;;;;0.40;0.40;;;;;;;16.22;62.21;101303.06;4884474;29;20119;-76
2022/07/17 03:45:51;;;;;;;0.50;0.50;;;;;;;16.21;62.63;101301.44;4866644;29;20140;-77
2022/07/17 03:48:16;;;;;;;1.20;0.50;;;;;;;16.17;62.10;101301.16;4897715;29;20036;-76
2022/07/17 03:50:42;;;;;;;0.47;0.47;;;;;;;16.14;62.32;101290.69;4869306;29;20074;-75
2022/07/17 03:53:07;;;;;;;1.10;0.68;;;;;;;16.13;62.64;101294.53;4866948;29;20125;-75
2022/07/17 03:55:33;;;;;;;3.33;0.50;;;;;;;16.14;62.59;101298.16;4873311;29;20033;-75
2022/07/17 03:57:59;;;;;;;4.22;0.60;;;;;;;16.15;62.64;101297.00;4866663;29;20171;-77
2022/07/17 04:00:24;;;;;;;0.50;0.50;;;;;;;16.10;62.51;101300.63;4876699;29;20054;-75
2022/07/17 04:02:50;;;;;;;1.00;0.60;;;;;;;16.13;62.52;101311.09;4882843;29;20107;-75
2022/07/17 04:05:15;;;;;;;0.60;0.60;;;;;;;16.12;62.60;101303.94;4863830;29;20033;-75
2022/07/17 04:07:42;;;;;;;0.60;0.50;;;;;;;16.11;62.86;101305.03;4865606;29;20396;-77
2022/07/17 04:10:09;;;;;;;0.70;0.60;;;;;;;16.14;62.88;101298.97;4877781;29;20784;-74
2022/07/17 04:12:35;;;;;;;3.25;0.57;;;;;;;16.18;62.70;101302.81;4886071;29;20068;-75
2022/07/17 04:15:01;;;;;;;1.42;0.93;;;;;;;16.21;62.86;101307.75;4877896;29;20119;-76
2022/07/17 04:17:27;;;;;;;0.95;0.60;;;;;;;16.27;62.69;101299.47;4889551;29;20483;-76
2022/07/17 04:19:52;;;;;;;1.10;0.77;;;;;;;16.26;62.77;101298.63;4887703;29;20025;-76
2022/07/17 04:22:18;;;;;;;1.08;0.50;;;;;;;16.18;62.93;101285.44;4886454;29;20052;-75
2022/07/17 04:24:43;;;;;;;0.40;0.40;;;;;;;16.17;62.62;101298.38;4885742;29;20043;-76
2022/07/17 04:27:09;;;;;;;0.70;0.60;;;;;;;16.09;62.92;101289.88;4885032;29;20057;-75
2022/07/17 04:29:35;;;;;;;0.70;0.50;;;;;;;16.14;63.06;101298.97;4868313;29;20049;-76
2022/07/17 04:32:03;;;;;;;0.52;0.50;;;;;;;16.15;62.93;101300.63;4906014;29;20032;-76
2022/07/17 04:34:29;;;;;;;0.52;0.52;;;;;;;16.13;62.84;101291.78;4887337;29;20021;-75
2022/07/17 04:36:55;;;;;;;0.40;0.40;;;;;;;16.06;63.18;101288.50;4900554;29;20038;-71
2022/07/17 04:39:23;;;;;;;0.50;0.50;;;;;;;16.07;63.17;101297.63;4882907;29;20088;-70
2022/07/17 04:41:48;;;;;;;0.75;0.65;;;;;;;16.05;63.01;101292.38;4883618;29;20035;-69
2022/07/17 04:44:14;;;;;;;0.60;0.43;;;;;;;16.05;63.21;101293.19;4899507;29;20036;-72
2022/07/17 04:46:39;;;;;;;0.52;0.40;;;;;;;16.10;63.10;101291.53;4851783;29;20060;-72
2022/07/17 04:49:05;;;;;;;0.50;0.50;;;;;;;16.08;63.26;101286.31;4900733;29;20036;-70
2022/07/17 04:51:30;;;;;;;1.30;0.65;;;;;;;16.12;63.22;101290.16;4884519;29;20028;-71
2022/07/17 04:53:56;;;;;;;0.47;0.45;;;;;;;16.14;63.10;101282.41;4884142;29;20098;-71
2022/07/17 04:56:21;;;;;;;0.50;0.50;;;;;;;16.16;63.10;101288.44;4900071;29;20392;-70
2022/07/17 04:58:48;;;;;;;0.40;0.40;;;;;;;16.21;62.80;101279.34;4884967;29;20109;-73
2022/07/17 05:01:13;;;;;;;0.38;0.38;;;;;;;16.25;63.03;101280.41;4887927;29;20005;-70
2022/07/17 05:03:41;;;;;;;0.70;0.60;;;;;;;16.23;63.07;101277.94;4901734;29;20032;-70
2022/07/17 05:06:06;;;;;;;0.68;0.60;;;;;;;16.29;62.80;101280.69;4853804;29;20040;-70
2022/07/17 05:08:34;;;;;;;0.60;0.60;;;;;;;16.37;63.02;101294.72;4883928;29;20128;-70
2022/07/17 05:11:00;;;;;;;0.63;0.52;;;;;;;16.43;62.96;101295.53;4906920;29;20031;-70
2022/07/17 05:13:25;;;;;;;0.65;0.50;;;;;;;16.47;62.76;101299.38;4900198;29;20028;-71
2022/07/17 05:15:51;;;;;;;0.70;0.47;;;;;;;16.52;62.80;101296.56;4883605;29;20538;-70
2022/07/17 05:18:16;;;;;;;0.95;0.52;;;;;;;16.58;62.91;101289.88;4870684;29;20032;-72
2022/07/17 05:20:42;;;;;;;0.60;0.60;;;;;;;16.63;62.66;101290.97;4864556;29;20024;-71
2022/07/17 05:23:07;;;;;;;1.10;0.70;;;;;;;16.70;62.51;101292.31;4882858;29;20119;-70
2022/07/17 05:25:33;;;;;;;1.00;0.57;;;;;;;16.78;62.11;101293.66;4897727;29;20025;-71
2022/07/17 05:27:58;;;;;;;0.85;0.70;;;;;;;16.84;62.47;101295.25;4875757;29;20044;-70
2022/07/17 05:30:24;;;;;;;1.13;0.63;;;;;;;16.89;62.00;101298.03;4883068;29;20060;-71
2022/07/17 05:32:49;;;;;;;0.93;0.73;;;;;;;17.00;61.88;101303.47;4889259;29;20108;-70
2022/07/17 05:35:15;;;;;;;0.75;0.60;;;;;;;17.09;61.91;101305.31;4880327;29;20547;-71
2022/07/17 05:37:42;;;;;;;0.40;0.40;;;;;;;17.19;61.31;101312.72;4897089;29;20033;-69
2022/07/17 05:40:08;;;;;;;1.00;0.57;;;;;;;17.31;61.76;101311.50;4875735;29;20506;-69
2022/07/17 05:42:33;;;;;;;0.47;0.30;;;;;;;17.42;61.21;101318.56;4877289;29;20123;-70
2022/07/17 05:44:59;;;;;;;0.70;0.43;;;;;;;17.51;61.19;101316.84;4882523;29;20043;-70
2022/07/17 05:47:25;;;;;;;0.60;0.60;;;;;;;17.61;61.33;101319.50;4880975;29;20506;-70
2022/07/17 05:49:50;;;;;;;0.40;0.40;;;;;;;17.72;60.80;101322.19;4860462;29;20052;-71
2022/07/17 05:52:16;;;;;;;0.60;0.60;;;;;;;17.82;60.97;101312.94;4860067;29;20498;-70
2022/07/17 05:54:42;;;;;;;0.43;0.43;;;;;;;17.92;60.53;101316.44;4875806;29;20029;-71
2022/07/17 05:57:09;;;;;;;0.65;0.50;;;;;;;18.03;60.59;101313.56;4881127;29;20116;-69
2022/07/17 05:59:35;;;;;;;1.40;0.65;;;;;;;18.12;60.09;101314.56;4879331;29;20035;-69
2022/07/17 06:02:04;;;;;;;0.75;0.60;;;;;;;18.18;59.92;101313.38;4882834;29;20384;-70
2022/07/17 06:04:30;;;;;;;1.15;0.68;;;;;;;18.29;60.12;101319.59;4874537;29;20364;-71
2022/07/17 06:06:55;;;;;;;2.08;0.50;;;;;;;18.36;59.52;101313.72;4879229;29;20052;-69
2022/07/17 06:09:21;;;;;;;0.80;0.60;;;;;;;18.48;59.24;101323.22;4893652;29;20039;-71
2022/07/17 06:11:46;;;;;;;0.73;0.63;;;;;;;18.57;59.60;101319.78;4861086;29;20792;-71
2022/07/17 06:14:12;;;;;;;0.85;0.50;;;;;;;18.65;59.54;101311.63;4873968;29;20037;-71
2022/07/17 06:16:37;;;;;;;0.73;0.68;;;;;;;18.67;58.96;101314.09;4867524;29;20093;-70
2022/07/17 06:19:06;;;;;;;0.60;0.60;;;;;;;18.63;58.88;101297.28;4877006;29;20063;-71
2022/07/17 06:21:34;;;;;;;1.85;1.02;;;;;;;18.80;58.98;101307.00;4854693;29;20037;-72
2022/07/17 06:24:03;;;;;;;3.78;1.25;;;;;;;18.84;58.96;101294.19;4864847;29;20488;-73
2022/07/17 06:26:29;;;;;;;1.60;0.93;;;;;;;18.94;58.53;101291.28;4885334;29;20037;-71
2022/07/17 06:28:55;;;;;;;2.35;1.10;;;;;;;19.09;58.43;101289.41;4869004;29;20048;-72
2022/07/17 06:31:22;;;;;;;1.08;0.98;;;;;;;19.26;57.85;101302.69;4843970;29;20069;-70
2022/07/17 06:33:48;;;;;;;1.33;0.90;;;;;;;19.42;58.06;101314.34;4851777;29;20479;-70
2022/07/17 06:36:14;;;;;;;1.15;0.70;;;;;;;19.61;57.10;101322.59;4852667;29;20047;-71
2022/07/17 06:38:39;;;;;;;1.52;0.80;;;;;;;19.66;56.90;101312.22;4885112;29;20391;-71
2022/07/17 06:41:05;;;;;;;0.82;0.60;;;;;;;19.86;57.07;101324.13;4863024;29;20060;-72
2022/07/17 06:43:30;;;;;;;1.65;0.90;;;;;;;19.96;56.89;101329.47;4850095;29;20156;-72
2022/07/17 06:45:56;;;;;;;1.10;1.00;;;;;;;20.05;56.19;101340.66;4895774;29;20400;-72
2022/07/17 06:48:22;;;;;;;1.17;0.73;;;;;;;20.10;56.05;101339.75;4864265;29;20029;-71
2022/07/17 06:50:48;;;;;;;1.20;0.90;;;;;;;20.16;56.05;101338.50;4886571;29;20024;-71
2022/07/17 06:53:14;;;;;;;1.83;0.93;;;;;;;20.23;55.94;101336.94;4861439;29;20064;-72
2022/07/17 06:55:42;;;;;;;2.33;0.98;;;;;;;20.40;55.33;101347.44;4880207;29;20076;-71
2022/07/17 06:58:08;;;;;;;1.63;0.60;;;;;;;20.48;55.39;101336.72;4878477;29;20535;-71
2022/07/17 07:00:34;;;;;;;1.23;0.70;;;;;;;20.64;55.24;101357.47;4844700;29;20040;-72
2022/07/17 07:02:59;;;;;;;1.40;0.90;;;;;;;20.74;54.86;101362.84;4876017;29;20043;-71
2022/07/17 07:05:30;;;;;;;1.95;1.20;;;;;;;20.83;55.09;101370.44;4878796;29;20037;-71
2022/07/17 07:07:56;;;;;;;4.90;1.00;;;;;;;20.85;54.67;101359.81;4860447;29;20040;-69
2022/07/17 07:10:21;;;;;;;1.63;1.00;;;;;;;20.83;54.93;101359.34;4894303;29;20040;-70
2022/07/17 07:12:50;;;;;;;2.58;0.90;;;;;;;20.89;54.34;101366.41;4892947;29;20094;-71
2022/07/17 07:15:15;;;;;;;2.97;1.20;;;;;;;20.92;54.77;101357.44;4873500;29;20063;-71
2022/07/17 07:17:41;;;;;;;3.00;1.48;;;;;;;20.96;54.39;101369.59;4873786;29;20461;-70
2022/07/17 07:20:14;;;;;;;1.90;1.27;;;;;;;20.90;54.09;101360.53;4887095;29;20029;-71
2022/07/17 07:22:40;;;;;;;6.63;1.73;;;;;;;20.93;54.56;101370.22;4872231;29;20037;-70
2022/07/17 07:25:08;;;;;;;4.88;1.48;;;;;;;20.84;54.85;101356.22;4865953;29;20088;-72
2022/07/17 07:27:34;;;;;;;1.75;0.90;;;;;;;21.09;54.63;101360.38;4870427;29;20044;-72
2022/07/17 07:29:59;;;;;;;3.35;1.17;;;;;;;21.08;54.31;101344.84;4865293;29;20033;-70
2022/07/17 07:32:25;;;;;;;3.63;0.80;;;;;;;21.32;53.78;101354.81;4891041;29;20025;-70
2022/07/17 07:34:50;;;;;;;1.20;1.10;;;;;;;21.39;53.75;101360.75;4873757;29;20059;-72
2022/07/17 07:37:16;;;;;;;2.22;0.95;;;;;;;21.45;53.66;101353.13;4872285;29;20036;-70
2022/07/17 07:39:41;;;;;;;2.53;1.52;;;;;;;21.49;53.79;101354.09;4895103;29;20092;-69
2022/07/17 07:42:07;;;;;;;2.38;1.40;;;;;;;21.54;53.69;101356.78;4878911;29;20048;-70
2022/07/17 07:44:32;;;;;;;1.48;0.80;;;;;;;21.74;53.25;101354.59;4878848;29;20044;-69
2022/07/17 07:46:58;;;;;;;2.97;1.30;;;;;;;21.85;53.11;101355.16;4854372;29;20049;-70
2022/07/17 07:49:24;;;;;;;2.28;1.20;;;;;;;21.84;52.85;101359.88;4878291;29;20550;-70
2022/07/17 07:51:50;;;;;;;2.33;1.20;;;;;;;21.89;52.89;101356.97;4890333;29;20032;-71
2022/07/17 07:54:15;;;;;;;3.35;1.02;;;;;;;22.03;52.42;101354.06;4856589;29;20032;-71
2022/07/17 07:56:41;;;;;;;3.55;1.70;;;;;;;21.98;52.11;101351.44;4868357;29;20040;-71
2022/07/17 07:59:06;;;;;;;5.20;1.52;;;;;;;22.01;51.87;101353.59;4877198;29;20136;-70
2022/07/17 08:01:34;;;;;;;3.55;1.15;;;;;;;22.13;52.04;101333.47;4860008;29;20049;-71
2022/07/17 08:03:59;;;;;;;3.15;1.38;;;;;;;22.41;51.76;101333.25;4861118;29;20033;-71
2022/07/17 08:06:25;;;;;;;2.95;1.00;;;;;;;22.63;51.23;101343.44;4856801;29;20053;-70
2022/07/17 08:08:50;;;;;;;4.00;1.77;;;;;;;22.73;50.57;101351.50;4898107;29;20416;-71
2022/07/17 08:11:16;;;;;;;6.28;1.73;;;;;;;22.65;50.61;101355.13;4881949;29;20120;-73
2022/07/17 08:13:41;;;;;;;2.53;1.17;;;;;;;22.67;50.50;101347.25;4870439;29;20044;-71
2022/07/17 08:16:07;;;;;;;2.58;1.02;;;;;;;22.84;50.34;101341.69;4882610;29;20040;-69
2022/07/17 08:18:34;;;;;;;3.78;1.23;;;;;;;23.12;49.56;101340.56;4872865;29;20108;-69
2022/07/17 08:21:00;;;;;;;1.88;1.00;;;;;;;23.25;49.26;101333.16;4868596;29;20036;-71
2022/07/17 08:23:27;;;;;;;3.13;1.08;;;;;;;23.46;49.00;101328.50;4895382;29;20031;-71
2022/07/17 08:25:54;;;;;;;3.10;1.10;;;;;;;23.63;48.15;101312.88;4879329;29;20044;-71
2022/07/17 08:28:20;;;;;;;2.67;1.30;;;;;;;23.57;48.69;101316.97;4850117;29;20400;-71
2022/07/17 08:30:46;;;;;;;2.72;1.25;;;;;;;23.62;47.52;101330.78;4878733;29;20036;-72
2022/07/17 08:33:14;;;;;;;3.17;1.13;;;;;;;23.55;48.33;101324.88;4899494;29;20037;-70
2022/07/17 08:35:39;;;;;;;3.08;1.80;;;;;;;23.61;47.02;101340.28;4897115;29;20528;-71
2022/07/17 08:38:08;;;;;;;3.97;1.20;;;;;;;23.67;47.32;101327.78;4878937;29;20112;-71
2022/07/17 08:40:39;;;;;;;2.58;1.40;;;;;;;23.72;45.57;101330.41;4892728;29;20055;-72
2022/07/17 08:43:06;;;;;;;2.05;1.20;;;;;;;23.78;45.71;101323.50;4881998;29;20490;-71
2022/07/17 08:45:34;;;;;;;5.35;1.20;;;;;;;23.90;44.93;101328.41;4897300;29;20048;-70
2022/07/17 08:48:00;;;;;;;8.55;1.27;;;;;;;23.84;44.78;101324.94;4866589;29;20548;-71
2022/07/17 08:50:35;;;;;;;1.42;1.05;;;;;;;23.93;45.45;101312.94;4863422;29;20044;-71
2022/07/17 08:53:07;;;;;;;2.20;1.10;;;;;;;24.10;44.71;101324.03;4894941;29;20025;-70
2022/07/17 08:55:32;;;;;;;2.78;1.15;;;;;;;24.17;44.57;101313.16;4896663;29;20036;-69
2022/07/17 08:57:58;;;;;;;1.98;1.27;;;;;;;24.29;42.80;101320.00;4891453;29;20075;-69
2022/07/17 09:00:25;;;;;;;1.65;0.90;;;;;;;24.26;43.02;101324.28;4888453;29;20064;-71
2022/07/17 09:03:00;;;;;;;1.27;0.93;;;;;;;24.32;43.55;101322.13;4876773;29;20147;-71
2022/07/17 09:05:33;;;;;;;1.65;0.82;;;;;;;24.56;42.92;101318.66;4892147;29;20044;-71
2022/07/17 09:08:00;;;;;;;2.35;1.27;;;;;;;24.70;43.95;101319.22;4892914;29;20574;-72
2022/07/17 09:10:32;;;;;;;3.17;1.45;;;;;;;24.87;44.41;101321.09;4892198;29;20178;-71
2022/07/17 09:12:59;;;;;;;4.53;1.25;;;;;;;25.14;43.90;101326.44;4858835;29;20036;-73
2022/07/17 09:15:24;;;;;;;2.17;0.90;;;;;;;25.33;43.67;101321.16;4862201;29;20040;-73
2022/07/17 09:17:51;;;;;;;1.98;1.10;;;;;;;25.37;41.29;101324.09;4878315;29;20029;-73
2022/07/17 09:20:50;;;;;;;1.80;1.30;;;;;;;25.42;40.65;101332.28;4890369;29;20080;-72
2022/07/17 09:23:18;;;;;;;3.90;1.17;;;;;;;25.23;40.48;101314.00;4859781;29;20036;-71
2022/07/17 09:25:46;;;;;;;10.07;0.90;;;;;;;25.25;38.67;101334.06;4882472;29;20036;-69
2022/07/17 09:28:14;;;;;;;11.55;1.25;;;;;;;25.13;39.02;101320.03;4875013;29;20644;-70
2022/07/17 09:30:42;;;;;;;3.45;1.00;;;;;;;25.13;38.95;101320.03;4892268;29;20037;-71
2022/07/17 09:33:13;;;;;;;2.40;1.10;;;;;;;25.09;38.35;101307.91;4879798;29;20052;-72
2022/07/17 09:35:47;;;;;;;4.60;1.00;;;;;;;25.12;37.83;101318.41;4880243;29;20032;-70
2022/07/17 09:38:24;;;;;;;6.03;1.38;;;;;;;25.18;37.09;101327.41;4892587;29;20064;-72
2022/07/17 09:43:57;;;;;;;4.63;1.20;;;;;;;25.37;37.34;101312.91;4889075;29;20080;-71
2022/07/17 09:46:24;;;;;;;7.45;1.20;;;;;;;25.53;36.39;101319.47;4860011;29;20063;-69
2022/07/17 09:48:59;;;;;;;2.88;0.98;;;;;;;25.54;37.17;101309.91;4887042;29;20048;-70
2022/07/17 09:51:39;;;;;;;2.33;0.95;;;;;;;25.63;36.87;101300.56;4873065;29;20159;-71
2022/07/17 09:54:07;;;;;;;1.88;1.15;;;;;;;25.94;36.05;101303.66;4873174;29;20028;-71
2022/07/17 09:56:37;;;;;;;5.13;1.42;;;;;;;25.99;36.12;101298.97;4874912;29;20056;-71
2022/07/17 09:59:08;;;;;;;1.95;1.10;;;;;;;26.30;35.90;101299.22;4875070;29;20059;-70
2022/07/17 10:01:41;;;;;;;1.08;0.75;;;;;;;27.09;35.05;101305.56;4880424;29;20033;-70
2022/07/17 10:04:10;;;;;;;3.25;1.65;;;;;;;27.94;31.34;101299.78;4877352;29;20091;-69
2022/07/17 10:06:36;;;;;;;1.10;1.00;;;;;;;28.69;31.30;101293.13;4880977;29;20444;-70
2022/07/17 10:09:05;;;;;;;1.58;1.13;;;;;;;29.55;29.66;101302.44;4878300;29;20020;-71
2022/07/17 10:11:38;;;;;;;2.45;1.02;;;;;;;30.18;27.65;101299.44;4874367;29;20037;-70
2022/07/17 10:14:12;;;;;;;1.90;1.25;;;;;;;30.39;27.95;101311.06;4890566;29;20027;-71
2022/07/17 10:16:44;;;;;;;5.90;1.35;;;;;;;31.12;26.16;101319.28;4876609;29;20028;-71
2022/07/17 10:19:19;;;;;;;4.28;1.05;;;;;;;31.49;26.01;101309.97;4875168;29;20127;-69
2022/07/17 10:21:58;;;;;;;1.95;1.20;;;;;;;31.89;24.78;101309.53;4896417;29;20053;-70
2022/07/17 10:24:27;;;;;;;1.92;0.98;;;;;;;31.89;25.07;101318.03;4874480;29;20029;-70
2022/07/17 10:26:53;;;;;;;1.33;1.00;;;;;;;32.21;25.19;101303.34;4859750;29;20048;-71
2022/07/17 10:29:30;;;;;;;5.05;1.30;;;;;;;32.75;24.49;101301.63;4888819;29;20765;-70
2022/07/17 10:31:57;;;;;;;1.80;1.02;;;;;;;33.32;22.94;101305.88;4880376;29;20036;-70
2022/07/17 10:34:46;;;;;;;2.28;1.30;;;;;;;33.69;23.34;101299.03;4877687;29;20033;-70
2022/07/17 10:37:30;;;;;;;4.05;1.33;;;;;;;34.23;22.61;101305.47;4873156;29;20033;-70
2022/07/17 10:40:06;;;;;;;2.85;1.20;;;;;;;34.07;22.21;101313.63;4879878;29;20028;-70
2022/07/17 10:42:58;;;;;;;1.73;1.00;;;;;;;33.58;22.35;101294.13;4870397;29;20036;-72
2022/07/17 10:45:34;;;;;;;1.10;1.00;;;;;;;33.84;22.91;101306.34;4880078;29;20021;-70
2022/07/17 10:48:08;;;;;;;3.03;1.10;;;;;;;35.03;21.65;101302.38;4891819;29;20131;-72
2022/07/17 10:50:46;;;;;;;4.65;1.20;;;;;;;35.32;21.48;101311.56;4889365;29;20084;-70
2022/07/17 10:53:21;;;;;;;1.33;1.00;;;;;;;35.13;22.14;101292.97;4890052;29;20048;-70
2022/07/17 11:07:59;;;;;;;2.58;1.38;;;;;;;36.77;20.25;101293.94;4094801;27;20064;-71
2022/07/17 11:10:27;;;;;;;1.42;1.23;;;;;;;36.62;19.58;101305.50;4876874;29;20029;-69
2022/07/17 11:12:55;;;;;;;1.48;1.10;;;;;;;35.78;20.04;101318.13;4874620;29;20092;-70
2022/07/17 11:15:21;;;;;;;5.60;1.40;;;;;;;34.25;21.03;101290.88;4870312;29;20391;-70
2022/07/17 11:17:48;;;;;;;1.70;1.00;;;;;;;32.97;22.46;101273.38;4867290;29;20089;-70
2022/07/17 11:20:15;;;;;;;2.63;1.30;;;;;;;32.94;23.04;101289.16;4876465;29;20040;-70
2022/07/17 11:22:41;;;;;;;2.80;1.20;;;;;;;32.99;22.83;101283.09;4892192;29;20060;-69
2022/07/17 11:25:08;;;;;;;1.48;1.17;;;;;;;32.50;23.42;101268.31;4878749;29;20036;-70
2022/07/17 11:27:34;;;;;;;2.20;1.48;;;;;;;32.45;23.08;101285.69;4857980;29;20392;-69
2022/07/17 11:30:03;;;;;;;1.55;1.20;;;;;;;32.21;23.61;101275.03;4858875;29;20053;-71
2022/07/17 11:32:33;;;;;;;2.78;1.38;;;;;;;32.53;23.79;101281.69;4856600;29;20030;-71
2022/07/17 11:35:00;;;;;;;4.82;1.20;;;;;;;32.81;23.14;101270.91;4877168;29;20048;-70
2022/07/17 11:37:29;;;;;;;2.45;1.45;;;;;;;32.84;22.50;101272.94;4874257;29;20037;-70
2022/07/17 11:39:56;;;;;;;1.50;1.17;;;;;;;32.94;22.79;101265.69;4879211;29;20104;-70